Prescott, Arizona
Current Conditions -  °F | °C
As of 5:53 PM on Friday 24 Oct 2014 (Local Time) from KPRC Reporting Station
Clear Clear  
Wind Chill: 73°   Ceiling: Unl
Heat Index: 73°   Visibility: 10mi
Dew Point: 36°   Wind: 8mph
Humidity: 26%   Direction: 130°SE
Pressure: 30.2"   Gusts: NA
Location:  34.54°N, 112.47°W
Report Text: KPRC 250053Z 13007KT 10SM CLR 23/02 A3020 RMK AO2 SLP171 T02280022
Loading
Personal Weather Stations






























Interactive Weather Map New forecast layout! Learn more

10-Day Weather Forecast

Advertisements
Track Severe Weather on mobile